createdAt,value
2019-02-17T00:02:07.600Z,26.12
2019-02-17T00:04:35.264Z,20.82
2019-02-17T00:07:03.039Z,24.30
2019-02-17T00:09:30.030Z,21.40
2019-02-17T00:11:57.118Z,22.17
2019-02-17T00:14:24.327Z,26.75
2019-02-17T00:16:52.468Z,21.17
2019-02-17T00:19:19.518Z,25.32
2019-02-17T00:21:46.597Z,29.07
2019-02-17T00:24:13.501Z,27.85
2019-02-17T00:26:40.618Z,25.85
2019-02-17T00:29:07.649Z,24.27
2019-02-17T00:31:35.107Z,22.85
2019-02-17T00:34:03.089Z,22.27
2019-02-17T00:36:31.166Z,23.75
2019-02-17T00:38:58.497Z,23.70
2019-02-17T00:41:25.716Z,28.05
2019-02-17T00:43:53.047Z,20.10
2019-02-17T00:46:20.149Z,24.80
2019-02-17T00:48:47.585Z,20.85
2019-02-17T00:51:14.742Z,24.00
2019-02-17T00:53:42.033Z,20.23
2019-02-17T00:56:09.279Z,20.17
2019-02-17T00:58:36.676Z,24.25
2019-02-17T01:01:03.762Z,23.18
2019-02-17T01:03:30.814Z,25.05
2019-02-17T01:05:57.761Z,24.85
2019-02-17T01:08:24.871Z,22.80
2019-02-17T01:10:51.753Z,24.98
2019-02-17T01:13:18.678Z,20.40
2019-02-17T01:15:45.675Z,22.62
2019-02-17T01:18:12.713Z,20.57
2019-02-17T01:20:39.985Z,27.35
2019-02-17T01:23:07.519Z,20.15
2019-02-17T01:25:34.658Z,19.65
2019-02-17T01:28:01.838Z,27.87
2019-02-17T01:30:28.946Z,21.35
2019-02-17T01:32:55.891Z,22.70
2019-02-17T01:35:22.861Z,23.30
2019-02-17T01:37:49.793Z,26.82
2019-02-17T01:40:16.813Z,20.97
2019-02-17T01:42:43.868Z,24.50
2019-02-17T01:45:10.818Z,23.95
2019-02-17T01:47:37.837Z,21.62
2019-02-17T01:50:05.136Z,23.25
2019-02-17T01:52:32.178Z,22.85
2019-02-17T01:54:59.238Z,17.40
2019-02-17T01:57:26.392Z,22.30
2019-02-17T01:59:53.446Z,21.15
2019-02-17T02:02:20.426Z,19.20
2019-02-17T02:04:47.428Z,21.73
2019-02-17T02:07:14.352Z,22.00
2019-02-17T02:09:41.381Z,23.67
2019-02-17T02:12:08.289Z,19.40
2019-02-17T02:14:35.348Z,21.77
2019-02-17T02:17:02.359Z,18.98
2019-02-17T02:19:29.344Z,18.62
2019-02-17T02:21:56.316Z,18.80
2019-02-17T02:24:23.294Z,18.25
2019-02-17T02:26:50.206Z,20.72
2019-02-17T02:29:17.306Z,19.92
2019-02-17T02:31:44.248Z,21.12
2019-02-17T02:34:11.176Z,17.80
2019-02-17T02:36:38.056Z,22.52
2019-02-17T02:39:05.850Z,20.62
2019-02-17T02:41:35.019Z,17.42
2019-02-17T02:44:01.707Z,19.40
2019-02-17T02:46:28.729Z,19.73
2019-02-17T02:48:55.612Z,22.20
2019-02-17T02:51:22.697Z,21.30
2019-02-17T02:53:49.672Z,20.37
2019-02-17T02:56:16.723Z,20.05
2019-02-17T02:58:43.760Z,18.65
2019-02-17T03:01:11.704Z,20.95
2019-02-17T03:03:38.612Z,16.73
2019-02-17T03:06:07.573Z,19.25
2019-02-17T03:08:34.619Z,18.57
2019-02-17T03:11:01.653Z,20.88
2019-02-17T03:13:28.690Z,18.98
2019-02-17T03:15:55.733Z,16.32
2019-02-17T03:18:22.737Z,20.02
2019-02-17T03:20:49.797Z,20.10
2019-02-17T03:23:16.978Z,16.75
2019-02-17T03:25:45.340Z,22.75
2019-02-17T03:28:12.539Z,22.80
2019-02-17T03:30:39.528Z,19.82
2019-02-17T03:33:06.556Z,17.98
2019-02-17T03:35:33.510Z,16.95
2019-02-17T03:38:00.561Z,18.05
2019-02-17T03:40:27.581Z,19.82
2019-02-17T03:42:54.507Z,16.95
2019-02-17T03:45:21.573Z,16.50
2019-02-17T03:47:48.528Z,24.72
2019-02-17T03:50:15.526Z,18.75
2019-02-17T03:52:42.713Z,23.18
2019-02-17T03:55:09.739Z,19.80
2019-02-17T03:57:36.768Z,16.55
2019-02-17T04:00:16.034Z,19.20
2019-02-17T04:02:33.074Z,21.37
2019-02-17T04:05:00.093Z,16.10
2019-02-17T04:07:27.141Z,19.27
2019-02-17T04:09:54.168Z,21.70
2019-02-17T04:12:21.574Z,20.35
2019-02-17T04:14:48.594Z,19.48
2019-02-17T04:17:15.510Z,20.40
2019-02-17T04:19:42.571Z,18.07
2019-02-17T04:22:09.631Z,18.17
2019-02-17T04:24:36.624Z,22.35
2019-02-17T04:27:03.670Z,18.87
2019-02-17T04:29:30.723Z,22.55
2019-02-17T04:31:57.643Z,21.68
2019-02-17T04:34:24.548Z,19.02
2019-02-17T04:36:51.494Z,18.67
2019-02-17T04:39:18.502Z,18.80
2019-02-17T04:41:45.536Z,17.30
2019-02-17T04:44:12.665Z,21.23
2019-02-17T04:46:39.684Z,21.50
2019-02-17T04:49:06.607Z,21.00
2019-02-17T04:51:33.529Z,16.82
2019-02-17T04:54:00.589Z,17.20
2019-02-17T04:56:27.633Z,18.42
2019-02-17T04:58:54.730Z,22.22
2019-02-17T05:01:21.695Z,19.50
2019-02-17T05:03:48.741Z,19.80
2019-02-17T05:06:15.702Z,17.55
2019-02-17T05:08:42.732Z,25.32
2019-02-17T05:11:09.774Z,21.97
2019-02-17T05:13:36.752Z,18.40
2019-02-17T05:16:03.642Z,18.05
2019-02-17T05:18:30.564Z,19.17
2019-02-17T05:20:57.675Z,22.27
2019-02-17T05:23:24.659Z,23.65
2019-02-17T05:25:51.799Z,24.52
2019-02-17T05:28:18.899Z,21.85
2019-02-17T05:30:52.803Z,19.65
2019-02-17T05:33:14.612Z,20.40
2019-02-17T05:35:44.467Z,29.25
2019-02-17T05:38:11.371Z,25.37
2019-02-17T05:40:38.315Z,18.98
2019-02-17T05:43:05.408Z,20.88
2019-02-17T05:45:32.462Z,22.87
2019-02-17T05:47:59.533Z,23.57
2019-02-17T05:50:26.585Z,25.60
2019-02-17T05:52:53.610Z,22.73
2019-02-17T05:55:20.786Z,23.87
2019-02-17T05:57:47.660Z,23.07
2019-02-17T06:00:16.176Z,25.00
2019-02-17T06:02:43.133Z,23.57
2019-02-17T06:05:10.157Z,20.92
2019-02-17T06:07:37.212Z,23.73
2019-02-17T06:10:05.604Z,22.50
2019-02-17T06:12:33.666Z,26.65
2019-02-17T06:15:00.834Z,21.57
2019-02-17T06:17:28.107Z,22.35
2019-02-17T06:19:55.037Z,26.30
2019-02-17T06:22:22.749Z,25.75
2019-02-17T06:24:49.723Z,21.70
2019-02-17T06:27:16.718Z,24.00
2019-02-17T06:29:44.149Z,22.30
2019-02-17T06:32:11.133Z,25.40
2019-02-17T06:34:38.148Z,21.05
2019-02-17T06:37:05.180Z,23.20
2019-02-17T06:39:32.219Z,22.27
2019-02-17T06:41:59.447Z,23.75
2019-02-17T06:44:26.448Z,23.05
2019-02-17T06:46:54.941Z,23.55
2019-02-17T06:49:22.017Z,25.82
2019-02-17T06:51:49.065Z,22.30
2019-02-17T06:54:15.981Z,19.73
2019-02-17T06:56:44.820Z,25.95
2019-02-17T06:59:11.876Z,25.60
2019-02-17T07:01:38.888Z,24.60
2019-02-17T07:04:05.914Z,28.67
2019-02-17T07:06:34.872Z,25.20
2019-02-17T07:09:01.953Z,24.92
2019-02-17T07:11:28.928Z,30.90
2019-02-17T07:13:55.950Z,28.17
2019-02-17T07:16:23.432Z,26.07
2019-02-17T07:18:50.491Z,30.45
2019-02-17T07:21:17.473Z,29.92
2019-02-17T07:23:44.478Z,28.50
2019-02-17T07:26:11.394Z,30.40
2019-02-17T07:28:38.434Z,25.80
2019-02-17T07:31:05.343Z,29.42
2019-02-17T07:33:32.289Z,26.35
2019-02-17T07:35:59.237Z,24.57
2019-02-17T07:38:26.325Z,27.10
2019-02-17T07:40:53.275Z,25.92
2019-02-17T07:43:20.265Z,29.15
2019-02-17T07:45:47.332Z,30.23
2019-02-17T07:48:14.374Z,34.45
2019-02-17T07:50:41.441Z,28.62
2019-02-17T07:53:08.513Z,28.75
2019-02-17T07:55:35.546Z,28.73
2019-02-17T07:58:02.449Z,28.27
2019-02-17T08:00:29.498Z,25.35
2019-02-17T08:02:56.422Z,26.12
2019-02-17T08:05:23.469Z,31.37
2019-02-17T08:07:50.560Z,32.35
2019-02-17T08:10:17.769Z,27.77
2019-02-17T08:12:44.710Z,28.40
2019-02-17T08:15:11.732Z,26.05
2019-02-17T08:17:38.760Z,23.38
2019-02-17T08:20:06.995Z,35.43
2019-02-17T08:22:33.936Z,34.30
2019-02-17T08:25:00.929Z,34.88
2019-02-17T08:27:27.954Z,31.65
2019-02-17T08:29:55.012Z,30.77
2019-02-17T08:32:22.005Z,32.83
2019-02-17T08:34:49.104Z,36.23
2019-02-17T08:37:16.008Z,32.17
2019-02-17T08:39:42.915Z,32.08
2019-02-17T08:42:10.341Z,32.15
2019-02-17T08:44:37.373Z,35.58
2019-02-17T08:47:04.390Z,33.20
2019-02-17T08:49:31.409Z,32.98
2019-02-17T08:51:58.289Z,31.23
2019-02-17T08:54:25.225Z,37.08
2019-02-17T08:56:52.155Z,36.35
2019-02-17T08:59:19.078Z,35.13
2019-02-17T09:01:46.203Z,37.80
2019-02-17T09:04:13.217Z,37.60
2019-02-17T09:06:40.180Z,36.55
2019-02-17T09:09:07.183Z,38.55
2019-02-17T09:11:34.144Z,32.88
2019-02-17T09:14:01.191Z,41.35
2019-02-17T09:16:28.203Z,36.30
2019-02-17T09:18:55.189Z,37.90
2019-02-17T09:21:22.223Z,40.00
2019-02-17T09:23:49.254Z,39.10
2019-02-17T09:26:16.136Z,41.80
2019-02-17T09:28:43.057Z,39.10
2019-02-17T09:31:10.114Z,39.18
2019-02-17T09:33:37.167Z,43.20
2019-02-17T09:36:04.200Z,41.15
2019-02-17T09:38:31.116Z,39.67
2019-02-17T09:40:58.132Z,34.23
2019-02-17T09:43:25.161Z,36.68
2019-02-17T09:45:52.149Z,33.13
2019-02-17T09:48:19.160Z,30.85
2019-02-17T09:50:46.080Z,34.35
2019-02-17T09:53:13.055Z,39.73
2019-02-17T09:55:40.055Z,34.25
2019-02-17T09:58:07.103Z,32.73
2019-02-17T10:00:34.073Z,34.65
2019-02-17T10:03:01.124Z,33.30
2019-02-17T10:05:28.059Z,33.38
2019-02-17T10:07:55.068Z,32.28
2019-02-17T10:10:22.153Z,33.90
2019-02-17T10:12:49.280Z,30.92
2019-02-17T10:15:16.419Z,30.52
2019-02-17T10:17:43.572Z,35.28
2019-02-17T10:20:11.472Z,33.42
2019-02-17T10:22:38.494Z,37.50
2019-02-17T10:25:05.812Z,33.02
2019-02-17T10:27:32.716Z,32.80
2019-02-17T10:29:59.743Z,29.92
2019-02-17T10:32:35.964Z,32.10
2019-02-17T10:34:56.201Z,34.50
2019-02-17T10:37:23.730Z,32.20
2019-02-17T10:39:50.895Z,31.35
2019-02-17T10:42:17.926Z,31.17
2019-02-17T10:44:44.904Z,35.60
2019-02-17T10:47:11.928Z,32.05
2019-02-17T10:49:39.097Z,33.05
2019-02-17T10:52:06.098Z,33.58
2019-02-17T10:54:33.149Z,31.25
2019-02-17T10:57:00.073Z,32.10
2019-02-17T10:59:27.082Z,29.42
2019-02-17T11:01:54.351Z,27.62
2019-02-17T11:04:21.627Z,30.55
2019-02-17T11:06:48.858Z,28.00
2019-02-17T11:09:17.839Z,27.07
2019-02-17T11:11:44.873Z,29.87
2019-02-17T11:14:11.905Z,32.83
2019-02-17T11:16:38.893Z,26.07
2019-02-17T11:19:05.808Z,34.40
2019-02-17T11:21:32.876Z,31.90
2019-02-17T11:24:00.058Z,32.00
2019-02-17T11:26:27.268Z,33.92
2019-02-17T11:28:54.503Z,25.72
2019-02-17T11:31:22.509Z,29.92
2019-02-17T11:33:49.574Z,29.85
2019-02-17T11:36:16.609Z,29.63
2019-02-17T11:38:43.646Z,27.77
2019-02-17T11:41:12.583Z,32.05
2019-02-17T11:43:39.469Z,32.28
2019-02-17T11:46:06.391Z,30.75
2019-02-17T11:48:33.358Z,35.25
2019-02-17T11:51:00.437Z,30.72
2019-02-17T11:53:27.674Z,28.95
2019-02-17T11:55:54.584Z,28.80
2019-02-17T11:58:21.510Z,30.53
2019-02-17T12:00:48.501Z,29.45
2019-02-17T12:03:15.519Z,29.40
2019-02-17T12:05:42.560Z,32.60
2019-02-17T12:08:09.617Z,29.18
2019-02-17T12:10:36.663Z,31.12
2019-02-17T12:13:03.552Z,29.10
2019-02-17T12:15:30.648Z,30.52
2019-02-17T12:17:59.313Z,35.65
2019-02-17T12:20:40.624Z,32.20
2019-02-17T12:23:26.257Z,33.78
2019-02-17T12:25:55.114Z,31.25
2019-02-17T12:28:27.013Z,33.08
2019-02-17T12:30:54.031Z,36.98
2019-02-17T12:33:21.927Z,32.80
2019-02-17T12:35:49.341Z,30.97
2019-02-17T12:38:16.427Z,33.92
2019-02-17T12:40:51.971Z,34.33
2019-02-17T12:43:18.911Z,28.15
2019-02-17T12:45:45.954Z,32.80
2019-02-17T12:48:12.953Z,32.40
2019-02-17T12:50:39.974Z,33.80
2019-02-17T12:53:06.894Z,34.85
2019-02-17T12:55:33.985Z,34.40
2019-02-17T12:58:00.926Z,33.50
2019-02-17T13:00:33.375Z,31.60
2019-02-17T13:03:00.369Z,31.60
2019-02-17T13:05:27.431Z,31.03
2019-02-17T13:07:54.755Z,35.07
2019-02-17T13:10:21.906Z,29.40
2019-02-17T13:12:48.941Z,32.05
2019-02-17T13:15:17.361Z,32.13
2019-02-17T13:17:44.384Z,32.00
2019-02-17T13:20:11.771Z,31.65
2019-02-17T13:22:38.885Z,29.17
2019-02-17T13:25:07.494Z,29.18
2019-02-17T13:27:34.675Z,29.90
2019-02-17T13:30:01.959Z,29.90
2019-02-17T13:32:28.995Z,29.00
2019-02-17T13:34:55.979Z,33.47
2019-02-17T13:37:23.036Z,29.73
2019-02-17T13:39:50.052Z,32.70
2019-02-17T13:42:17.043Z,30.73
2019-02-17T13:44:44.096Z,28.37
2019-02-17T13:47:10.985Z,29.97
2019-02-17T13:49:37.946Z,32.70
2019-02-17T13:52:04.836Z,28.05
2019-02-17T13:54:31.866Z,28.43
2019-02-17T13:56:58.885Z,29.97
2019-02-17T13:59:25.923Z,29.20
2019-02-17T14:01:52.993Z,27.70
2019-02-17T14:04:20.417Z,31.70
2019-02-17T14:06:47.440Z,31.10
2019-02-17T14:09:14.917Z,29.00
2019-02-17T14:11:41.960Z,28.83
2019-02-17T14:14:09.304Z,26.82
2019-02-17T14:16:36.458Z,28.05
2019-02-17T14:19:04.686Z,26.60
2019-02-17T14:21:32.306Z,26.20
2019-02-17T14:23:59.262Z,28.30
2019-02-17T14:26:26.348Z,30.90
2019-02-17T14:28:53.292Z,32.10
2019-02-17T14:31:20.484Z,29.37
2019-02-17T14:33:47.626Z,28.90
2019-02-17T14:36:14.629Z,26.97
2019-02-17T14:38:41.717Z,32.73
2019-02-17T14:41:08.778Z,28.93
2019-02-17T14:43:35.834Z,39.13
2019-02-17T14:46:02.889Z,31.30
2019-02-17T14:48:29.908Z,33.20
2019-02-17T14:50:56.882Z,27.03
2019-02-17T14:53:23.952Z,23.67
2019-02-17T14:55:51.468Z,25.80
2019-02-17T14:58:18.630Z,23.67
2019-02-17T15:00:45.644Z,24.23
2019-02-17T15:03:12.718Z,27.57
2019-02-17T15:05:39.727Z,28.37
2019-02-17T15:08:06.740Z,31.17
2019-02-17T15:10:33.768Z,35.73
2019-02-17T15:13:00.705Z,25.33
2019-02-17T15:15:31.928Z,24.33
2019-02-17T15:17:58.988Z,38.03
2019-02-17T15:20:26.055Z,29.07
2019-02-17T15:22:53.106Z,23.63
2019-02-17T15:25:20.195Z,27.00
2019-02-17T15:27:47.081Z,25.90
2019-02-17T15:30:14.068Z,26.60
2019-02-17T15:32:41.021Z,29.43
2019-02-17T15:35:08.283Z,29.87
2019-02-17T15:37:35.276Z,29.40
2019-02-17T15:40:02.294Z,31.67
2019-02-17T15:42:29.345Z,30.67
2019-02-17T15:44:56.291Z,36.00
2019-02-17T15:47:23.280Z,28.20
2019-02-17T15:49:50.430Z,30.07
2019-02-17T15:52:17.450Z,27.57
2019-02-17T15:54:44.762Z,27.37
2019-02-17T15:57:11.844Z,27.63
2019-02-17T15:59:38.960Z,31.10
2019-02-17T16:02:05.954Z,25.57
2019-02-17T16:04:32.860Z,25.60
2019-02-17T16:07:00.058Z,34.57
2019-02-17T16:09:30.033Z,29.90
2019-02-17T16:11:57.014Z,31.03
2019-02-17T16:14:24.127Z,29.70
2019-02-17T16:16:51.107Z,32.50
2019-02-17T16:19:18.073Z,31.97
2019-02-17T16:21:45.013Z,32.73
2019-02-17T16:24:12.124Z,30.50
2019-02-17T16:26:39.145Z,31.20
2019-02-17T16:29:06.212Z,28.67
2019-02-17T16:31:33.200Z,33.93
2019-02-17T16:34:00.328Z,30.33
2019-02-17T16:36:27.301Z,31.33
2019-02-17T16:38:54.408Z,33.37
2019-02-17T16:41:21.677Z,40.40
2019-02-17T16:43:48.654Z,27.30
2019-02-17T16:46:15.742Z,39.23
2019-02-17T16:48:42.665Z,31.57
2019-02-17T16:51:09.776Z,35.50
2019-02-17T16:53:36.765Z,34.65
2019-02-17T16:56:03.738Z,29.90
2019-02-17T16:58:30.870Z,32.13
2019-02-17T17:00:57.936Z,28.50
2019-02-17T17:03:24.883Z,27.25
2019-02-17T17:05:51.915Z,30.20
2019-02-17T17:08:18.972Z,32.42
2019-02-17T17:10:46.049Z,32.95
2019-02-17T17:13:13.111Z,29.90
2019-02-17T17:15:40.021Z,25.15
2019-02-17T17:18:06.962Z,30.75
2019-02-17T17:20:33.945Z,41.65
2019-02-17T17:23:00.848Z,32.78
2019-02-17T17:25:27.809Z,35.00
2019-02-17T17:27:54.838Z,30.60
2019-02-17T17:30:21.803Z,36.17
2019-02-17T17:32:48.756Z,30.25
2019-02-17T17:35:15.897Z,30.55
2019-02-17T17:37:42.813Z,35.45
2019-02-17T17:40:10.414Z,31.87
2019-02-17T17:42:37.372Z,34.15
2019-02-17T17:45:05.259Z,34.55
2019-02-17T17:47:32.388Z,33.55
2019-02-17T17:49:59.313Z,27.50
2019-02-17T17:52:26.300Z,34.78
2019-02-17T17:54:53.309Z,29.15
2019-02-17T17:57:20.273Z,41.05
2019-02-17T17:59:47.494Z,33.75
2019-02-17T18:02:14.499Z,27.20
2019-02-17T18:04:41.510Z,28.67
2019-02-17T18:07:08.528Z,32.03
2019-02-17T18:09:35.814Z,29.92
2019-02-17T18:12:03.193Z,28.90
2019-02-17T18:14:30.431Z,28.55
2019-02-17T18:16:58.809Z,27.02
2019-02-17T18:19:25.835Z,26.33
2019-02-17T18:21:53.309Z,35.52
2019-02-17T18:24:20.964Z,27.85
2019-02-17T18:26:48.407Z,27.32
2019-02-17T18:29:16.295Z,20.75
2019-02-17T18:31:43.491Z,21.95
2019-02-17T18:34:10.717Z,20.88
2019-02-17T18:36:38.201Z,21.82
2019-02-17T18:39:05.608Z,21.12
2019-02-17T18:41:32.650Z,23.87
2019-02-17T18:44:00.814Z,22.05
2019-02-17T18:46:27.804Z,21.12
2019-02-17T18:48:55.072Z,20.65
2019-02-17T18:51:22.323Z,17.10
2019-02-17T18:53:49.578Z,22.30
2019-02-17T18:56:17.922Z,17.67
2019-02-17T18:58:45.311Z,20.80
2019-02-17T19:01:12.642Z,18.30
2019-02-17T19:03:40.070Z,23.30
2019-02-17T19:06:07.361Z,24.30
2019-02-17T19:08:34.680Z,18.42
2019-02-17T19:11:01.678Z,23.67
2019-02-17T19:13:29.201Z,20.40
2019-02-17T19:15:56.728Z,21.87
2019-02-17T19:18:23.749Z,19.45
2019-02-17T19:20:50.794Z,23.02
2019-02-17T19:23:17.834Z,23.02
2019-02-17T19:25:44.869Z,20.43
2019-02-17T19:28:12.226Z,20.82
2019-02-17T19:30:39.359Z,15.90
2019-02-17T19:33:06.462Z,33.38
2019-02-17T19:35:41.466Z,28.02
2019-02-17T19:38:02.666Z,25.48
2019-02-17T19:40:29.795Z,19.32
2019-02-17T19:42:56.974Z,17.87
2019-02-17T19:45:24.508Z,19.82
2019-02-17T19:47:52.134Z,21.80
2019-02-17T19:50:19.684Z,24.87
2019-02-17T19:52:47.666Z,21.23
2019-02-17T19:55:14.987Z,20.10
2019-02-17T19:57:42.148Z,19.70
2019-02-17T20:00:18.684Z,18.95
2019-02-17T20:03:04.788Z,17.65
2019-02-17T20:05:52.354Z,17.50
2019-02-17T20:08:20.333Z,20.82
2019-02-17T20:10:47.458Z,18.45
2019-02-17T20:13:14.748Z,19.85
2019-02-17T20:15:41.857Z,20.20
2019-02-17T20:18:09.006Z,18.98
2019-02-17T20:20:36.786Z,19.82
2019-02-17T20:23:04.409Z,19.85
2019-02-17T20:25:31.710Z,16.62
2019-02-17T20:27:59.238Z,21.27
2019-02-17T20:30:26.703Z,17.50
2019-02-17T20:33:02.775Z,16.93
2019-02-17T20:35:30.515Z,17.02
2019-02-17T20:37:58.664Z,19.82
2019-02-17T20:40:29.680Z,15.68
2019-02-17T20:42:58.253Z,17.85
2019-02-17T20:45:30.142Z,19.12
2019-02-17T20:47:57.095Z,20.88
2019-02-17T20:50:24.462Z,23.10
2019-02-17T20:52:51.681Z,20.25
2019-02-17T20:55:19.302Z,20.70
2019-02-17T20:57:46.413Z,20.15
2019-02-17T21:00:13.826Z,19.00
2019-02-17T21:02:40.972Z,19.98
2019-02-17T21:05:08.581Z,20.82
2019-02-17T21:07:35.613Z,16.32
2019-02-17T21:10:03.085Z,18.75
2019-02-17T21:12:34.712Z,16.80
2019-02-17T21:15:01.947Z,22.05
2019-02-17T21:17:29.109Z,15.63
2019-02-17T21:19:56.075Z,20.15
2019-02-17T21:22:23.237Z,14.78
2019-02-17T21:24:50.478Z,17.23
2019-02-17T21:27:21.135Z,20.25
2019-02-17T21:29:48.341Z,17.42
2019-02-17T21:32:15.740Z,17.87
2019-02-17T21:34:43.412Z,19.20
2019-02-17T21:37:10.604Z,17.60
2019-02-17T21:39:37.693Z,18.98
2019-02-17T21:42:05.333Z,16.00
2019-02-17T21:44:32.460Z,16.97
2019-02-17T21:46:59.509Z,18.12
2019-02-17T21:49:26.634Z,17.73
2019-02-17T21:51:53.694Z,15.58
2019-02-17T21:54:20.676Z,18.65
2019-02-17T21:56:47.763Z,17.15
2019-02-17T21:59:14.973Z,17.12
2019-02-17T22:01:42.022Z,17.02
2019-02-17T22:04:08.991Z,17.45
2019-02-17T22:06:36.444Z,16.70
2019-02-17T22:09:05.132Z,16.70
2019-02-17T22:11:32.213Z,22.93
2019-02-17T22:13:59.461Z,17.07
2019-02-17T22:16:26.870Z,17.35
2019-02-17T22:18:53.870Z,16.73
2019-02-17T22:21:20.961Z,16.97
2019-02-17T22:23:48.321Z,19.73
2019-02-17T22:26:15.600Z,14.83
2019-02-17T22:28:42.613Z,21.42
2019-02-17T22:31:09.666Z,15.20
2019-02-17T22:33:36.976Z,17.65
2019-02-17T22:36:04.271Z,17.65
2019-02-17T22:38:31.282Z,19.75
2019-02-17T22:40:58.361Z,18.70
2019-02-17T22:43:25.253Z,20.62
2019-02-17T22:45:52.239Z,14.28
2019-02-17T22:48:19.619Z,15.55
2019-02-17T22:50:46.690Z,19.57
2019-02-17T22:53:13.705Z,14.70
2019-02-17T22:55:40.731Z,16.05
2019-02-17T22:58:07.781Z,13.40
2019-02-17T23:00:46.993Z,14.15
2019-02-17T23:03:14.106Z,16.30
2019-02-17T23:05:42.313Z,14.10
2019-02-17T23:08:09.367Z,18.30
2019-02-17T23:10:36.514Z,14.90
2019-02-17T23:13:03.810Z,14.83
2019-02-17T23:15:30.757Z,16.67
2019-02-17T23:17:58.009Z,17.12
2019-02-17T23:20:25.059Z,17.40
2019-02-17T23:22:52.109Z,14.90
2019-02-17T23:25:19.640Z,15.13
2019-02-17T23:27:46.725Z,16.95
2019-02-17T23:30:13.796Z,15.88
2019-02-17T23:32:40.895Z,14.65
2019-02-17T23:35:07.981Z,16.30
2019-02-17T23:37:35.105Z,15.90
2019-02-17T23:40:03.978Z,13.53
2019-02-17T23:42:31.160Z,19.95
2019-02-17T23:44:58.305Z,17.52
2019-02-17T23:47:25.409Z,14.95
2019-02-17T23:49:53.476Z,18.92
2019-02-17T23:52:20.894Z,17.80
2019-02-17T23:54:47.907Z,14.55
2019-02-17T23:57:14.988Z,13.60
2019-02-17T23:59:42.001Z,14.85
